Time;durP1;ratioP1;P1;durP2;ratioP2;P2;SDS_P1;SDS_P2;PMS_P1;PMS_P2;Temp;Humidity;BMP_temperature;BMP_pressure;BME280_temperature;BME280_humidity;BME280_pressure;Samples;Min_cycle;Max_cycle;Signal;HPM_P1;HPM_P2
2021/05/24 00:00:19;;;;;;;2.75;1.10;;;;;;;10.00;62.98;100612.09;4956991;28;20104;-51
2021/05/24 00:02:46;;;;;;;5.38;1.20;;;;;;;10.23;60.79;100598.06;4958711;28;20049;-48
2021/05/24 00:05:17;;;;;;;2.35;1.00;;;;;;;9.99;61.76;100606.88;4958028;28;20475;-51
2021/05/24 00:07:43;;;;;;;3.20;1.25;;;;;;;10.25;61.65;100606.78;4960871;28;20124;-48
2021/05/24 00:10:11;;;;;;;2.45;1.20;;;;;;;10.53;60.24;100604.94;4958314;28;20547;-48
2021/05/24 00:12:37;;;;;;;1.90;1.00;;;;;;;10.66;59.75;100600.50;4960360;28;20050;-50
2021/05/24 00:15:06;;;;;;;3.05;1.08;;;;;;;10.64;59.44;100606.63;4958277;28;20406;-49
2021/05/24 00:17:31;;;;;;;2.85;1.20;;;;;;;10.62;60.11;100605.75;4957614;28;20050;-50
2021/05/24 00:19:57;;;;;;;3.10;1.20;;;;;;;10.51;60.85;100588.41;4973264;28;20267;-48
2021/05/24 00:22:23;;;;;;;1.83;1.05;;;;;;;10.65;60.01;100592.69;4957184;28;20058;-50
2021/05/24 00:24:48;;;;;;;2.95;1.15;;;;;;;10.47;61.22;100589.28;4960964;28;20050;-51
2021/05/24 00:27:14;;;;;;;3.38;1.30;;;;;;;10.66;60.20;100573.47;4972162;28;20464;-50
2021/05/24 00:29:40;;;;;;;3.38;1.55;;;;;;;10.65;60.15;100579.63;4956618;28;20042;-52
2021/05/24 00:32:06;;;;;;;3.95;1.30;;;;;;;10.64;60.79;100575.25;4960072;28;20302;-49
2021/05/24 00:34:31;;;;;;;4.88;1.50;;;;;;;10.49;60.97;100577.06;4959091;28;20301;-48
2021/05/24 00:36:57;;;;;;;3.08;1.23;;;;;;;10.66;61.20;100574.38;4956541;28;20030;-48
2021/05/24 00:39:23;;;;;;;2.65;1.20;;;;;;;10.50;61.11;100564.88;4956496;28;20034;-52
2021/05/24 00:41:49;;;;;;;3.55;1.40;;;;;;;10.45;61.33;100570.13;4958702;28;20101;-49
2021/05/24 00:44:15;;;;;;;3.90;1.17;;;;;;;10.49;61.58;100566.63;4958754;28;20104;-49
2021/05/24 00:46:41;;;;;;;2.67;1.15;;;;;;;10.61;61.45;100564.81;4962976;28;20026;-48
2021/05/24 00:49:07;;;;;;;2.88;1.13;;;;;;;10.66;60.94;100557.78;4958069;28;20410;-50
2021/05/24 00:51:33;;;;;;;2.38;1.17;;;;;;;10.44;61.93;100552.72;4958625;28;20385;-49
2021/05/24 00:54:00;;;;;;;4.10;1.40;;;;;;;10.51;61.66;100551.81;4974438;28;20042;-48
2021/05/24 00:56:26;;;;;;;2.75;1.30;;;;;;;10.67;61.68;100549.09;4946796;28;20439;-47
2021/05/24 00:58:53;;;;;;;2.50;1.10;;;;;;;10.54;61.60;100543.94;4962129;28;20121;-52
2021/05/24 01:01:19;;;;;;;2.20;1.30;;;;;;;10.78;61.34;100539.41;4962745;28;20074;-49
2021/05/24 01:03:45;;;;;;;3.60;1.40;;;;;;;10.77;61.52;100532.44;4961059;28;20121;-49
2021/05/24 01:06:11;;;;;;;2.88;1.20;;;;;;;10.50;62.58;100528.28;4960558;28;20073;-48
2021/05/24 01:08:38;;;;;;;2.22;1.10;;;;;;;10.63;61.63;100529.06;4961713;28;21410;-48
2021/05/24 01:11:04;;;;;;;1.80;1.10;;;;;;;10.78;61.91;100528.94;4963433;28;20479;-49
2021/05/24 01:13:30;;;;;;;2.10;1.20;;;;;;;10.62;62.98;100529.94;4961523;28;20030;-49
2021/05/24 01:15:55;;;;;;;3.58;1.30;;;;;;;10.62;61.60;100525.59;4957859;28;20113;-49
2021/05/24 01:18:23;;;;;;;2.88;1.20;;;;;;;10.68;61.97;100519.47;4958351;28;20130;-49
2021/05/24 01:20:48;;;;;;;2.38;1.20;;;;;;;10.53;62.81;100523.91;4960903;28;20223;-49
2021/05/24 01:23:17;;;;;;;3.65;1.27;;;;;;;10.63;62.00;100519.47;4957157;28;20514;-49
2021/05/24 01:25:46;;;;;;;4.47;1.20;;;;;;;10.70;62.53;100520.28;4963063;28;20065;-49
2021/05/24 01:28:14;;;;;;;2.75;1.20;;;;;;;10.64;62.71;100517.75;4948467;28;20141;-49
2021/05/24 01:30:40;;;;;;;3.30;1.20;;;;;;;10.46;62.50;100516.97;4971931;28;20502;-50
2021/05/24 01:33:08;;;;;;;4.60;1.48;;;;;;;10.59;63.19;100509.06;4957924;28;20050;-48
2021/05/24 01:35:36;;;;;;;2.88;1.45;;;;;;;10.61;62.47;100507.31;4963670;28;20486;-49
2021/05/24 01:38:03;;;;;;;1.90;1.08;;;;;;;10.63;63.27;100505.53;4960472;28;20042;-48
2021/05/24 01:40:29;;;;;;;4.05;1.27;;;;;;;10.46;63.50;100508.28;4967853;28;20484;-49
2021/05/24 01:42:58;;;;;;;2.78;1.20;;;;;;;10.52;62.60;100503.00;4960262;28;20069;-50
2021/05/24 01:45:24;;;;;;;2.97;1.10;;;;;;;10.46;63.08;100500.44;4958308;28;20035;-48
2021/05/24 01:47:50;;;;;;;3.33;1.20;;;;;;;10.65;63.39;100501.19;4962290;28;20046;-49
2021/05/24 01:50:16;;;;;;;2.17;1.00;;;;;;;10.64;62.58;100507.28;4960692;28;20042;-49
2021/05/24 01:52:43;;;;;;;3.90;1.30;;;;;;;10.53;62.96;100497.75;4948115;28;20439;-49
2021/05/24 01:55:09;;;;;;;2.20;1.17;;;;;;;10.66;63.64;100502.91;4960433;28;20307;-52
2021/05/24 01:57:38;;;;;;;2.58;1.10;;;;;;;10.49;63.68;100489.97;4958287;28;20038;-50
2021/05/24 02:00:08;;;;;;;2.87;1.10;;;;;;;10.59;62.83;100498.59;4958552;28;20038;-48
2021/05/24 02:02:34;;;;;;;3.97;1.30;;;;;;;10.52;64.36;100492.53;4958428;28;20805;-49
2021/05/24 02:05:00;;;;;;;1.98;1.02;;;;;;;10.76;63.28;100494.13;4960217;28;20099;-47
2021/05/24 02:07:29;;;;;;;2.50;1.10;;;;;;;10.65;62.85;100486.34;4959371;28;20061;-49
2021/05/24 02:09:56;;;;;;;3.28;1.20;;;;;;;10.77;63.09;100477.53;4956803;28;20038;-49
2021/05/24 02:12:22;;;;;;;2.55;1.00;;;;;;;10.64;63.76;100488.97;4958861;28;20299;-48
2021/05/24 02:14:52;;;;;;;4.05;1.17;;;;;;;10.68;63.13;100482.84;4946434;28;20073;-48
2021/05/24 02:17:19;;;;;;;1.40;1.00;;;;;;;10.43;64.00;100484.78;4974405;28;20841;-48
2021/05/24 02:19:47;;;;;;;2.72;1.40;;;;;;;10.57;63.36;100478.56;4960702;28;20043;-49
2021/05/24 02:22:13;;;;;;;2.05;1.15;;;;;;;10.45;63.62;100476.03;4958076;28;20074;-49
2021/05/24 02:24:39;;;;;;;2.10;1.10;;;;;;;10.69;63.41;100469.75;4959538;28;20092;-49
2021/05/24 02:27:05;;;;;;;3.83;1.30;;;;;;;10.83;63.03;100472.25;4962668;28;20042;-48
2021/05/24 02:29:31;;;;;;;2.10;1.08;;;;;;;10.69;63.34;100474.13;4963896;28;20256;-48
2021/05/24 02:31:56;;;;;;;1.50;1.10;;;;;;;10.79;63.56;100470.56;4961774;28;20450;-52
2021/05/24 02:34:22;;;;;;;5.50;1.20;;;;;;;10.73;63.82;100468.00;4959619;28;20050;-48
2021/05/24 02:36:48;;;;;;;3.40;1.13;;;;;;;10.63;63.80;100461.09;4959993;28;20066;-51
2021/05/24 02:39:13;;;;;;;1.80;1.10;;;;;;;10.73;62.77;100463.63;4963443;28;20052;-48
2021/05/24 02:41:39;;;;;;;3.08;1.33;;;;;;;10.69;63.78;100458.44;4960905;28;20294;-48
2021/05/24 02:44:06;;;;;;;3.63;1.20;;;;;;;10.67;63.13;100449.75;4957680;28;20662;-51
2021/05/24 02:46:33;;;;;;;2.47;1.10;;;;;;;10.69;64.06;100453.22;4962686;28;20421;-49
2021/05/24 02:48:59;;;;;;;2.22;1.30;;;;;;;10.53;64.67;100442.88;4959399;28;20054;-50
2021/05/24 02:51:25;;;;;;;2.22;1.00;;;;;;;10.61;63.71;100441.97;4957740;28;20671;-52
2021/05/24 02:53:50;;;;;;;2.97;1.40;;;;;;;10.46;64.45;100446.41;4962514;28;20065;-49
2021/05/24 02:56:16;;;;;;;3.22;1.20;;;;;;;10.44;63.63;100436.84;4962722;28;20042;-48
2021/05/24 02:58:42;;;;;;;2.80;1.20;;;;;;;10.77;63.51;100432.22;4959754;28;20061;-49
2021/05/24 03:01:10;;;;;;;2.75;1.17;;;;;;;10.60;63.64;100440.22;4961209;28;20055;-50
2021/05/24 03:03:36;;;;;;;2.08;1.00;;;;;;;10.83;62.96;100438.25;4959095;28;20062;-49
2021/05/24 03:06:03;;;;;;;2.35;0.95;;;;;;;10.66;63.01;100437.53;4957721;28;20046;-49
2021/05/24 03:08:31;;;;;;;3.55;1.13;;;;;;;10.69;63.38;100441.00;4958766;28;20047;-49
2021/05/24 03:10:57;;;;;;;1.17;0.85;;;;;;;10.55;64.22;100440.28;4960613;28;20045;-49
2021/05/24 03:13:25;;;;;;;2.70;1.10;;;;;;;10.63;63.15;100441.03;4961127;28;20193;-49
2021/05/24 03:15:54;;;;;;;2.72;1.02;;;;;;;10.63;63.69;100437.56;4957788;28;20343;-49
2021/05/24 03:18:22;;;;;;;;;;;;;;;10.77;63.44;100437.44;4959580;28;20495;-48
2021/05/24 03:20:48;;;;;;;3.80;1.10;;;;;;;10.79;63.48;100433.94;4958822;28;20494;-50
2021/05/24 03:23:14;;;;;;;2.08;0.90;;;;;;;10.70;64.05;100431.41;4955117;28;20539;-48
2021/05/24 03:25:40;;;;;;;2.72;1.20;;;;;;;10.67;63.25;100428.81;4942772;28;20247;-50
2021/05/24 03:28:06;;;;;;;4.07;1.55;;;;;;;10.72;63.74;100424.44;4960810;28;20050;-50
2021/05/24 03:30:32;;;;;;;3.17;1.10;;;;;;;10.70;63.08;100429.69;4963848;28;20050;-50
2021/05/24 03:32:58;;;;;;;2.35;1.00;;;;;;;10.71;64.16;100428.78;4958771;28;20054;-48
2021/05/24 03:35:23;;;;;;;2.75;1.10;;;;;;;10.85;62.88;100420.78;4958734;28;20061;-48
2021/05/24 03:37:50;;;;;;;4.55;1.00;;;;;;;10.78;63.00;100416.50;4950299;28;20641;-49
2021/05/24 03:40:16;;;;;;;2.55;1.10;;;;;;;10.72;63.96;100422.66;4959580;28;20055;-53
2021/05/24 03:42:43;;;;;;;3.38;1.02;;;;;;;11.01;62.91;100416.28;4956983;28;20041;-50
2021/05/24 03:45:13;;;;;;;1.98;1.20;;;;;;;10.84;62.75;100416.47;4959766;28;20054;-49
2021/05/24 03:47:39;;;;;;;2.28;0.98;;;;;;;10.89;62.61;100419.88;4959096;28;20038;-49
2021/05/24 03:50:06;;;;;;;1.88;0.95;;;;;;;11.07;61.86;100415.34;4961585;28;20267;-51
2021/05/24 03:52:33;;;;;;;2.25;0.95;;;;;;;10.94;62.92;100421.59;4961125;28;20034;-50
2021/05/24 03:54:58;;;;;;;2.15;0.88;;;;;;;10.85;62.82;100417.31;4957906;28;20054;-49
2021/05/24 03:57:24;;;;;;;2.15;0.80;;;;;;;10.78;62.93;100408.66;4958109;28;20054;-48
2021/05/24 03:59:51;;;;;;;2.95;0.85;;;;;;;10.97;62.58;100405.88;4954098;28;20072;-50
2021/05/24 04:02:17;;;;;;;3.40;0.93;;;;;;;10.84;62.90;100405.13;4953311;28;20027;-49
2021/05/24 04:04:43;;;;;;;3.85;1.15;;;;;;;11.05;62.20;100412.75;4960581;28;20530;-49
2021/05/24 04:07:11;;;;;;;2.38;1.02;;;;;;;11.16;62.05;100406.53;4962835;28;20054;-48
2021/05/24 04:09:37;;;;;;;2.88;0.90;;;;;;;11.19;61.92;100402.13;4960204;28;20141;-49
2021/05/24 04:12:03;;;;;;;2.97;0.90;;;;;;;11.25;61.41;100401.19;4963614;28;20034;-52
2021/05/24 04:14:30;;;;;;;2.13;1.00;;;;;;;11.20;62.29;100398.66;4960920;28;20038;-48
2021/05/24 04:16:56;;;;;;;3.97;1.25;;;;;;;11.22;61.80;100391.63;4963453;28;20047;-49
2021/05/24 04:19:22;;;;;;;2.63;0.90;;;;;;;11.15;61.77;100389.97;4960575;28;20130;-48
2021/05/24 04:21:48;;;;;;;3.45;1.02;;;;;;;11.29;61.31;100381.97;4959596;28;20354;-49
2021/05/24 04:24:15;;;;;;;2.33;0.90;;;;;;;11.17;61.65;100379.50;4959125;28;20237;-51
2021/05/24 04:26:41;;;;;;;2.00;0.90;;;;;;;11.38;61.06;100383.59;4961378;28;20432;-48
2021/05/24 04:29:07;;;;;;;2.55;1.30;;;;;;;11.27;62.00;100383.75;4961064;28;20139;-50
2021/05/24 04:31:34;;;;;;;1.42;0.80;;;;;;;11.24;61.72;100382.03;4967170;28;20039;-48
2021/05/24 04:34:00;;;;;;;1.33;0.85;;;;;;;11.44;61.18;100377.41;4962145;28;20490;-50
2021/05/24 04:36:26;;;;;;;1.25;0.80;;;;;;;11.56;60.27;100375.53;4964717;28;20045;-48
2021/05/24 04:38:52;;;;;;;2.55;1.00;;;;;;;11.37;61.12;100385.34;4961977;28;20047;-50
2021/05/24 04:41:18;;;;;;;3.53;0.90;;;;;;;11.55;60.17;100378.16;4962368;28;20097;-48
2021/05/24 04:43:43;;;;;;;1.73;0.80;;;;;;;11.42;60.60;100377.44;4967934;28;20038;-52
2021/05/24 04:46:10;;;;;;;3.15;0.98;;;;;;;11.47;60.72;100378.25;4963750;28;20061;-49
2021/05/24 04:48:36;;;;;;;2.10;0.80;;;;;;;11.56;60.77;100375.53;4963902;28;20492;-49
2021/05/24 04:51:03;;;;;;;3.38;0.93;;;;;;;11.49;60.17;100378.22;4962185;28;20403;-49
2021/05/24 04:53:32;;;;;;;3.67;0.93;;;;;;;11.38;60.65;100370.50;4963056;28;20069;-49
2021/05/24 04:55:58;;;;;;;2.13;0.80;;;;;;;11.30;61.10;100370.63;4965301;28;20034;-49
2021/05/24 04:58:24;;;;;;;3.47;0.98;;;;;;;11.31;61.02;100364.50;4962564;28;20097;-49
2021/05/24 05:00:50;;;;;;;2.42;0.90;;;;;;;11.62;59.63;100358.00;4962326;28;20130;-50
2021/05/24 05:03:16;;;;;;;3.15;0.90;;;;;;;11.48;60.46;100377.38;4949689;28;20050;-51
2021/05/24 05:05:42;;;;;;;1.02;0.80;;;;;;;11.56;59.53;100362.44;4962522;28;20100;-49
2021/05/24 05:08:09;;;;;;;2.15;0.98;;;;;;;11.59;59.63;100367.63;4965938;28;20046;-50
2021/05/24 05:10:35;;;;;;;2.38;1.10;;;;;;;11.55;60.10;100368.53;4963091;28;20093;-50
2021/05/24 05:13:01;;;;;;;2.58;0.90;;;;;;;11.63;59.03;100357.97;4965340;28;20038;-51
2021/05/24 05:15:27;;;;;;;1.55;0.90;;;;;;;11.67;59.28;100353.53;4959641;28;20618;-50
2021/05/24 05:17:52;;;;;;;3.13;1.00;;;;;;;11.68;59.36;100352.66;4960530;28;20034;-49
2021/05/24 05:20:18;;;;;;;1.48;0.80;;;;;;;11.50;59.78;100354.63;4961385;28;20914;-50
2021/05/24 05:22:44;;;;;;;1.25;0.85;;;;;;;11.48;59.54;100360.78;4967082;28;20230;-51
2021/05/24 05:25:11;;;;;;;1.73;0.90;;;;;;;11.64;58.91;100358.84;4962627;28;20062;-52
2021/05/24 05:27:36;;;;;;;2.45;0.93;;;;;;;11.56;59.92;100372.00;4969120;28;20166;-51
2021/05/24 05:30:04;;;;;;;2.08;1.10;;;;;;;11.70;58.77;100366.59;4961409;28;20506;-49
2021/05/24 05:32:30;;;;;;;4.72;1.00;;;;;;;11.55;59.15;100365.06;4962254;28;20414;-49
2021/05/24 05:34:56;;;;;;;2.50;1.00;;;;;;;11.70;58.63;100366.59;4933606;28;20537;-51
2021/05/24 05:37:22;;;;;;;1.30;0.73;;;;;;;11.75;58.50;100359.53;4959532;28;20478;-48
2021/05/24 05:39:54;;;;;;;2.45;1.02;;;;;;;11.68;58.77;100357.91;4960571;28;20756;-51
2021/05/24 05:42:22;;;;;;;1.20;0.73;;;;;;;11.72;58.72;100343.88;4947256;28;20043;-52
2021/05/24 05:44:49;;;;;;;4.53;1.07;;;;;;;11.54;59.30;100345.00;4959051;28;20054;-50
2021/05/24 05:47:15;;;;;;;3.30;0.80;;;;;;;11.54;59.16;100350.25;4961474;28;20407;-51
2021/05/24 05:49:41;;;;;;;1.08;0.70;;;;;;;11.68;58.27;100352.66;4961508;28;20084;-50
2021/05/24 05:52:07;;;;;;;2.22;1.00;;;;;;;11.50;59.41;100344.16;4961503;28;20050;-50
2021/05/24 05:54:33;;;;;;;3.35;0.88;;;;;;;11.50;59.98;100351.16;4960980;28;20376;-49
2021/05/24 05:56:59;;;;;;;2.25;0.90;;;;;;;11.57;59.85;100350.19;4960641;28;20065;-50
2021/05/24 05:59:25;;;;;;;6.07;0.90;;;;;;;11.66;58.52;100343.94;4959677;28;20088;-49
2021/05/24 06:01:50;;;;;;;2.75;1.00;;;;;;;11.49;59.78;100346.81;4967329;28;20223;-52
2021/05/24 06:04:16;;;;;;;1.95;0.90;;;;;;;11.71;58.29;100348.25;4960974;28;20050;-48
2021/05/24 06:06:42;;;;;;;2.22;1.00;;;;;;;11.69;58.38;100343.94;4963142;28;20046;-50
2021/05/24 06:09:08;;;;;;;1.33;0.75;;;;;;;11.77;57.55;100336.84;4958582;28;20123;-49
2021/05/24 06:11:33;;;;;;;6.32;1.00;;;;;;;11.76;57.99;100332.47;4967973;28;20137;-49
2021/05/24 06:13:59;;;;;;;2.80;0.90;;;;;;;11.77;58.29;100334.22;4962765;28;20267;-48
2021/05/24 06:16:25;;;;;;;1.55;0.80;;;;;;;11.88;57.52;100331.41;4963143;28;20052;-51
2021/05/24 06:18:50;;;;;;;2.25;1.05;;;;;;;11.85;58.66;100329.72;4963821;28;20482;-48
2021/05/24 06:21:16;;;;;;;1.60;0.93;;;;;;;11.88;58.80;100328.78;4966558;28;20042;-49
2021/05/24 06:23:45;;;;;;;1.85;0.90;;;;;;;12.21;57.32;100331.78;4961846;28;20057;-50
2021/05/24 06:26:14;;;;;;;1.63;0.85;;;;;;;12.33;56.88;100325.50;4967848;28;20117;-49
2021/05/24 06:28:39;;;;;;;2.65;1.00;;;;;;;12.51;56.50;100319.91;4966098;28;20054;-50
2021/05/24 06:31:05;;;;;;;2.50;0.85;;;;;;;12.70;54.99;100320.44;4960596;28;20178;-50
2021/05/24 06:33:31;;;;;;;1.75;0.90;;;;;;;12.77;55.45;100323.81;4962202;28;20149;-48
2021/05/24 06:35:56;;;;;;;1.98;0.80;;;;;;;12.86;55.19;100328.88;4970345;28;20257;-49
2021/05/24 06:38:22;;;;;;;2.55;0.90;;;;;;;13.02;54.98;100318.94;4961818;28;20104;-50
2021/05/24 06:40:48;;;;;;;2.42;0.73;;;;;;;13.02;54.58;100312.84;4965657;28;20512;-48
2021/05/24 06:43:14;;;;;;;1.67;0.80;;;;;;;13.17;54.61;100309.88;4962513;28;20052;-51
2021/05/24 06:45:39;;;;;;;2.75;0.85;;;;;;;13.19;53.86;100313.31;4963489;28;20260;-48
2021/05/24 06:48:05;;;;;;;3.67;1.00;;;;;;;13.02;55.20;100310.22;4963756;28;20044;-48
2021/05/24 06:50:32;;;;;;;1.45;0.88;;;;;;;13.39;53.94;100304.22;4961505;28;20058;-54
2021/05/24 06:52:58;;;;;;;1.13;0.80;;;;;;;13.14;55.72;100304.69;4966868;28;20022;-51
2021/05/24 06:55:24;;;;;;;1.50;0.85;;;;;;;13.16;54.31;100297.66;4958920;28;20054;-48
2021/05/24 06:57:51;;;;;;;3.08;0.88;;;;;;;13.56;52.55;100285.44;4961851;28;20152;-50
2021/05/24 07:00:17;;;;;;;1.58;0.80;;;;;;;13.42;53.97;100291.00;4962369;28;20037;-49
2021/05/24 07:02:43;;;;;;;2.33;1.00;;;;;;;13.56;53.05;100291.53;4972506;28;20043;-50
2021/05/24 07:05:10;;;;;;;1.88;0.80;;;;;;;13.61;53.61;100281.81;4959116;28;20026;-49
2021/05/24 07:07:36;;;;;;;3.28;0.90;;;;;;;13.56;54.33;100281.03;4961495;28;20053;-50
2021/05/24 07:10:04;;;;;;;2.70;0.90;;;;;;;13.63;53.37;100282.63;4964915;28;20041;-51
2021/05/24 07:12:30;;;;;;;2.08;0.90;;;;;;;13.70;52.65;100271.97;4977076;28;20034;-50
2021/05/24 07:14:56;;;;;;;1.80;0.88;;;;;;;13.58;54.40;100266.13;4958640;28;20050;-51
2021/05/24 07:17:22;;;;;;;2.08;0.80;;;;;;;14.10;52.95;100263.97;4963312;28;20041;-50
2021/05/24 07:19:47;;;;;;;3.33;0.90;;;;;;;14.25;51.45;100262.69;4966069;28;20031;-50
2021/05/24 07:22:14;;;;;;;2.00;0.80;;;;;;;14.29;51.75;100260.88;4957721;28;20175;-54
2021/05/24 07:24:39;;;;;;;2.72;0.98;;;;;;;14.35;51.57;100259.84;4957882;28;20042;-51
2021/05/24 07:27:06;;;;;;;3.88;1.10;;;;;;;14.63;50.40;100258.22;4970090;28;20049;-49
2021/05/24 07:29:32;;;;;;;3.40;1.10;;;;;;;14.65;51.14;100252.91;4968115;28;20810;-49
2021/05/24 07:31:58;;;;;;;1.95;0.80;;;;;;;14.69;49.43;100253.66;4970595;28;20042;-51
2021/05/24 07:34:24;;;;;;;1.20;0.80;;;;;;;14.66;51.43;100248.50;4983261;28;20058;-50
2021/05/24 07:36:50;;;;;;;1.05;0.75;;;;;;;14.97;49.21;100248.47;4985762;28;20042;-52
2021/05/24 07:39:16;;;;;;;3.72;0.85;;;;;;;15.01;50.21;100236.06;4972766;28;20054;-50
2021/05/24 07:41:42;;;;;;;1.13;0.80;;;;;;;15.09;50.33;100242.84;4972995;28;20367;-48
2021/05/24 07:44:07;;;;;;;2.78;1.00;;;;;;;15.19;50.05;100232.91;4969359;28;20153;-49
2021/05/24 07:46:34;;;;;;;3.17;1.08;;;;;;;15.06;51.45;100231.53;4967953;28;20045;-48
2021/05/24 07:48:59;;;;;;;2.08;0.80;;;;;;;15.30;49.68;100230.78;4965941;28;20280;-49
2021/05/24 07:51:25;;;;;;;4.05;0.80;;;;;;;15.32;49.98;100228.97;4968359;28;20046;-52
2021/05/24 07:53:54;;;;;;;2.47;1.00;;;;;;;15.83;47.82;100219.44;4972931;28;20047;-50
2021/05/24 07:56:20;;;;;;;2.58;1.00;;;;;;;15.83;48.54;100218.59;4968176;28;20038;-49
2021/05/24 07:58:45;;;;;;;1.85;0.73;;;;;;;15.96;47.49;100206.72;4956137;28;20050;-51
2021/05/24 08:01:11;;;;;;;1.50;0.70;;;;;;;15.95;46.65;100212.03;4973476;28;20042;-51
2021/05/24 08:03:37;;;;;;;3.10;1.08;;;;;;;15.88;46.82;100214.03;4973414;28;20081;-50
2021/05/24 08:06:03;;;;;;;2.60;0.80;;;;;;;15.84;46.78;100204.50;4986882;28;20464;-48
2021/05/24 08:08:29;;;;;;;2.47;0.77;;;;;;;15.97;45.65;100213.69;4974718;28;20577;-50
2021/05/24 08:10:54;;;;;;;3.28;0.95;;;;;;;16.12;45.75;100214.94;4973929;28;20045;-50
2021/05/24 08:13:20;;;;;;;2.65;0.75;;;;;;;16.20;44.71;100219.97;4986315;28;20130;-51
2021/05/24 08:15:46;;;;;;;2.28;1.20;;;;;;;15.93;47.19;100203.31;4979414;28;20038;-50
2021/05/24 08:18:11;;;;;;;2.47;0.70;;;;;;;15.92;47.37;100212.13;4988502;28;20367;-48
2021/05/24 08:20:37;;;;;;;1.70;0.75;;;;;;;15.90;44.70;100204.28;4973322;28;20057;-50
2021/05/24 08:23:05;;;;;;;1.98;0.80;;;;;;;15.78;47.56;100202.03;4974516;28;20473;-48
2021/05/24 08:25:31;;;;;;;2.20;0.80;;;;;;;15.97;45.24;100211.06;4962034;28;20579;-49
2021/05/24 08:28:00;;;;;;;5.18;1.17;;;;;;;15.92;45.99;100207.75;4971935;28;20046;-53
2021/05/24 08:30:26;;;;;;;2.95;1.08;;;;;;;15.96;45.82;100209.38;4972226;28;20096;-49
2021/05/24 08:32:52;;;;;;;2.60;0.98;;;;;;;15.82;45.48;100216.88;4976283;28;21143;-51
2021/05/24 08:35:17;;;;;;;1.95;0.70;;;;;;;15.82;45.68;100212.47;4989781;28;20026;-51
2021/05/24 08:37:43;;;;;;;1.23;0.75;;;;;;;15.66;46.06;100227.88;4977277;28;20034;-53
2021/05/24 08:40:09;;;;;;;1.90;0.80;;;;;;;15.57;46.45;100215.00;4976681;28;20050;-52
2021/05/24 08:42:41;;;;;;;1.73;1.08;;;;;;;15.68;46.06;100222.56;4977293;28;20125;-52
2021/05/24 08:45:08;;;;;;;3.00;0.80;;;;;;;15.58;46.57;100214.09;4977333;28;20573;-50
2021/05/24 08:47:34;;;;;;;3.05;0.80;;;;;;;15.51;46.92;100217.84;4973635;28;20104;-50
2021/05/24 08:50:00;;;;;;;1.67;0.80;;;;;;;15.56;46.99;100210.66;4977136;28;21096;-51
2021/05/24 08:52:29;;;;;;;2.95;1.00;;;;;;;15.52;48.25;100202.91;4974133;28;20057;-53
2021/05/24 08:54:55;;;;;;;3.63;0.90;;;;;;;15.49;47.38;100214.38;4974663;28;20238;-50
2021/05/24 08:57:21;;;;;;;3.42;1.13;;;;;;;15.48;48.38;100208.28;4968748;28;20096;-49
2021/05/24 08:59:47;;;;;;;3.17;0.90;;;;;;;15.46;49.08;100207.44;4967451;28;20313;-48
2021/05/24 09:02:13;;;;;;;3.33;1.05;;;;;;;15.56;48.75;100204.53;4970033;28;20376;-51
2021/05/24 09:04:47;;;;;;;2.13;0.95;;;;;;;15.65;48.22;100193.69;4964040;28;20264;-50
2021/05/24 09:07:15;;;;;;;5.47;1.23;;;;;;;15.63;48.69;100191.09;4963830;28;20043;-49
2021/05/24 09:09:57;;;;;;;3.92;1.40;;;;;;;15.62;49.39;100184.09;4965956;28;20042;-47
2021/05/24 09:12:30;;;;;;;2.38;1.10;;;;;;;15.69;47.28;100182.13;4965115;28;20558;-48
2021/05/24 09:14:59;;;;;;;1.38;0.90;;;;;;;15.59;47.74;100178.06;4962794;28;20038;-49
2021/05/24 09:17:25;;;;;;;3.58;0.98;;;;;;;15.45;48.80;100170.63;4963590;28;20507;-48
2021/05/24 09:19:51;;;;;;;3.25;0.90;;;;;;;15.51;49.45;100173.06;4964333;28;20532;-47
2021/05/24 09:22:17;;;;;;;4.82;1.13;;;;;;;15.67;46.62;100176.03;4961825;28;20780;-48
2021/05/24 09:24:44;;;;;;;4.45;1.20;;;;;;;15.63;46.71;100161.25;4963491;28;20100;-50
2021/05/24 09:27:34;;;;;;;3.35;1.00;;;;;;;15.55;46.67;100169.44;4962282;28;20076;-48
2021/05/24 09:30:01;;;;;;;3.55;1.00;;;;;;;15.65;46.39;100162.91;4963494;28;20057;-50
2021/05/24 09:32:29;;;;;;;3.38;0.98;;;;;;;15.52;46.99;100160.75;4960761;28;20394;-49
2021/05/24 09:34:59;;;;;;;3.00;1.10;;;;;;;15.77;44.91;100160.78;4965053;28;20221;-50
2021/05/24 09:37:40;;;;;;;3.15;1.23;;;;;;;15.63;46.60;100167.41;4966842;28;20149;-48
2021/05/24 09:40:25;;;;;;;3.58;1.00;;;;;;;15.77;44.27;100160.78;4957464;28;20045;-50
2021/05/24 09:42:50;;;;;;;3.40;0.95;;;;;;;15.65;46.68;100160.28;4960800;28;20042;-48
2021/05/24 09:45:18;;;;;;;2.53;1.00;;;;;;;15.71;44.97;100150.47;4958058;28;20038;-50
2021/05/24 09:47:44;;;;;;;1.88;0.95;;;;;;;15.85;43.87;100153.50;4961404;28;20065;-51
2021/05/24 09:50:21;;;;;;;2.67;1.00;;;;;;;15.93;44.92;100156.72;4945752;28;20086;-50
2021/05/24 09:52:48;;;;;;;5.38;1.23;;;;;;;15.83;45.13;100148.28;4962791;28;20174;-48
2021/05/24 09:55:13;;;;;;;3.22;1.00;;;;;;;15.93;42.85;100146.19;4962734;28;20526;-49
2021/05/24 09:58:00;;;;;;;3.35;1.10;;;;;;;15.92;44.35;100147.13;4970061;28;20084;-48
2021/05/24 10:00:38;;;;;;;4.63;1.20;;;;;;;15.87;44.33;100146.41;4967347;28;20424;-49
2021/05/24 10:03:06;;;;;;;1.58;0.80;;;;;;;15.90;43.56;100141.03;4946054;28;20042;-53
2021/05/24 10:05:41;;;;;;;4.85;1.10;;;;;;;15.93;41.76;100137.44;4959057;28;20042;-51
2021/05/24 10:08:07;;;;;;;3.53;0.93;;;;;;;15.80;44.71;100129.09;4975597;28;20406;-49
2021/05/24 10:10:33;;;;;;;3.50;1.00;;;;;;;15.69;45.62;100131.19;4961703;28;20031;-51
2021/05/24 10:13:00;;;;;;;4.60;1.13;;;;;;;15.85;42.79;100142.09;4960899;28;20322;-51
2021/05/24 10:15:26;;;;;;;3.88;1.02;;;;;;;15.74;44.59;100126.63;4958089;28;20043;-49
2021/05/24 10:18:00;;;;;;;2.67;1.02;;;;;;;15.63;45.81;100137.53;4959700;28;20244;-50
2021/05/24 10:20:26;;;;;;;2.97;1.23;;;;;;;15.64;46.91;100132.22;4959650;28;20133;-48
2021/05/24 10:23:06;;;;;;;0.95;0.68;;;;;;;15.50;46.03;100137.09;4960072;28;21162;-51
2021/05/24 10:25:34;;;;;;;3.15;1.20;;;;;;;15.38;49.65;100134.88;4963645;28;20054;-52
2021/05/24 10:28:03;;;;;;;3.30;0.93;;;;;;;15.20;46.42;100107.38;4966252;28;20097;-51
2021/05/24 10:30:29;;;;;;;2.90;1.33;;;;;;;15.11;49.10;100126.97;4984614;28;20073;-49
2021/05/24 10:32:56;;;;;;;6.05;1.20;;;;;;;14.86;53.07;100124.25;4970428;28;20049;-50
2021/05/24 10:35:35;;;;;;;2.93;1.10;;;;;;;14.87;51.83;100132.09;4962274;28;20391;-50
2021/05/24 10:38:20;;;;;;;3.15;1.00;;;;;;;14.70;52.13;100119.44;4964655;28;20022;-49
2021/05/24 10:40:46;;;;;;;2.33;0.90;;;;;;;14.69;52.85;100128.25;4960310;28;20108;-51
2021/05/24 10:43:15;;;;;;;3.08;1.25;;;;;;;14.58;52.98;100120.66;4945269;28;20046;-51
2021/05/24 10:45:41;;;;;;;5.05;1.75;;;;;;;14.57;51.58;100118.94;4945803;28;20038;-48
2021/05/24 10:48:07;;;;;;;1.75;1.08;;;;;;;14.57;52.53;100128.59;4960710;28;20097;-50
2021/05/24 10:50:35;;;;;;;2.92;0.90;;;;;;;14.46;50.50;100119.25;4963883;28;20050;-52
2021/05/24 10:53:04;;;;;;;2.03;1.30;;;;;;;14.39;52.40;100116.84;4976250;28;20112;-50
2021/05/24 10:55:44;;;;;;;3.00;0.80;;;;;;;14.37;52.01;100114.28;4972096;28;20939;-51
2021/05/24 10:58:10;;;;;;;3.78;0.98;;;;;;;14.39;52.75;100119.50;4973908;28;20069;-51
2021/05/24 11:00:53;;;;;;;3.80;1.17;;;;;;;14.31;52.79;100117.91;4973926;28;20043;-54
2021/05/24 11:03:20;;;;;;;3.78;1.20;;;;;;;14.20;54.57;100111.25;4972818;28;20141;-49
2021/05/24 11:06:06;;;;;;;3.05;1.35;;;;;;;14.34;52.83;100114.34;4955054;28;20146;-50
2021/05/24 11:08:42;;;;;;;2.30;0.90;;;;;;;14.48;51.21;100116.56;4954599;28;20056;-54
2021/05/24 11:11:18;;;;;;;3.45;1.45;;;;;;;14.68;50.70;100105.50;4957690;28;20174;-55
2021/05/24 11:13:56;;;;;;;2.45;1.10;;;;;;;14.78;49.08;100112.19;4989823;28;20039;-52
2021/05/24 11:16:22;;;;;;;5.65;1.13;;;;;;;14.73;50.71;100111.47;4968596;28;20046;-53
2021/05/24 11:18:48;;;;;;;2.85;1.00;;;;;;;14.78;51.62;100103.44;4973065;28;20052;-49
2021/05/24 11:21:13;;;;;;;1.85;1.10;;;;;;;14.59;53.19;100106.59;4989018;28;20137;-49
2021/05/24 11:26:35;;;;;;;2.33;1.10;;;;;;;14.72;53.24;100107.13;4971966;28;20058;-48